Time;durP1;ratioP1;P1;durP2;ratioP2;P2;SDS_P1;SDS_P2;PMS_P1;PMS_P2;Temp;Humidity;BMP_temperature;BMP_pressure;BME280_temperature;BME280_humidity;BME280_pressure;Samples;Min_cycle;Max_cycle;Signal;HPM_P1;HPM_P2
2021/01/23 00:01:35;;;;;;;;;;;8.20;75.70;;;;;;4932482;28;117541;-85
2021/01/23 00:04:01;;;;;;;;;;;8.20;75.70;;;;;;4933156;28;117405;-86
2021/01/23 00:06:26;;;;;;;;;;;8.20;75.70;;;;;;4932116;28;120008;-86
2021/01/23 00:08:52;;;;;;;;;;;8.20;75.60;;;;;;4931539;28;119458;-85
2021/01/23 00:11:17;;;;;;;;;;;8.20;75.60;;;;;;4948943;28;117464;-85
2021/01/23 00:13:43;;;;;;;;;;;8.20;75.70;;;;;;4932810;28;117905;-85
2021/01/23 00:16:09;;;;;;;;;;;8.20;75.70;;;;;;4931810;28;121253;-85
2021/01/23 00:18:35;;;;;;;;;;;8.20;75.70;;;;;;4947431;28;117816;-85
2021/01/23 00:21:00;;;;;;;;;;;8.20;76.40;;;;;;4932235;28;117321;-86
2021/01/23 00:23:26;;;;;;;;;;;8.20;75.70;;;;;;4932880;28;117421;-86
2021/01/23 00:25:51;;;;;;;;;;;8.20;75.80;;;;;;4948163;28;117486;-86
2021/01/23 00:28:17;;;;;;;;;;;8.10;75.50;;;;;;4930768;28;119579;-86
2021/01/23 00:30:42;;;;;;;;;;;8.10;75.60;;;;;;4948475;28;117551;-86
2021/01/23 00:33:08;;;;;;;;;;;8.10;75.70;;;;;;4932728;28;117402;-86
2021/01/23 00:35:33;;;;;;;;;;;8.20;75.70;;;;;;4931529;28;123241;-86
2021/01/23 00:37:59;;;;;;;;;;;8.10;75.70;;;;;;4931475;28;119462;-86
2021/01/23 00:40:24;;;;;;;;;;;8.10;75.70;;;;;;4931874;28;117484;-86
2021/01/23 00:42:50;;;;;;;;;;;8.20;75.80;;;;;;4932781;28;117842;-86
2021/01/23 00:45:15;;;;;;;;;;;8.10;75.60;;;;;;4931326;28;121499;-86
2021/01/23 00:47:41;;;;;;;;;;;8.20;75.60;;;;;;4931175;28;120497;-86
2021/01/23 00:50:07;;;;;;;;;;;8.10;75.60;;;;;;4948188;28;117526;-86
2021/01/23 00:52:32;;;;;;;;;;;8.10;76.20;;;;;;4932612;28;117787;-85
2021/01/23 00:54:58;;;;;;;;;;;8.20;75.70;;;;;;4931339;28;121297;-86
2021/01/23 00:57:23;;;;;;;;;;;8.10;75.70;;;;;;4947575;28;119555;-86
2021/01/23 00:59:49;;;;;;;;;;;8.10;75.60;;;;;;4948351;28;117454;-86
2021/01/23 01:02:14;;;;;;;;;;;8.10;75.60;;;;;;4931621;28;117437;-86
2021/01/23 01:04:39;;;;;;;;;;;8.10;75.60;;;;;;4930975;28;121492;-86
2021/01/23 01:07:05;;;;;;;;;;;8.10;75.50;;;;;;4947054;28;124742;-86
2021/01/23 01:09:30;;;;;;;;;;;8.10;75.60;;;;;;4948065;28;117449;-86
2021/01/23 01:11:56;;;;;;;;;;;8.10;75.60;;;;;;4932076;28;117447;-86
2021/01/23 01:14:22;;;;;;;;;;;8.10;75.60;;;;;;4930781;28;121136;-86
2021/01/23 01:16:47;;;;;;;;;;;8.10;75.70;;;;;;4930853;28;119528;-86
2021/01/23 01:19:13;;;;;;;;;;;8.10;75.60;;;;;;4947803;28;117437;-86
2021/01/23 01:21:38;;;;;;;;;;;8.10;75.70;;;;;;4948300;28;117352;-86
2021/01/23 01:24:04;;;;;;;;;;;8.10;75.70;;;;;;4930640;28;121262;-86
2021/01/23 01:26:29;;;;;;;;;;;8.10;75.60;;;;;;4930689;28;120567;-86
2021/01/23 01:28:55;;;;;;;;;;;8.10;75.60;;;;;;4930886;28;117839;-86
2021/01/23 01:31:21;;;;;;;;;;;8.10;75.70;;;;;;4931896;28;117861;-86
2021/01/23 01:33:47;;;;;;;;;;;8.10;75.60;;;;;;4930600;28;121250;-86
2021/01/23 01:36:12;;;;;;;;;;;8.10;75.60;;;;;;4947219;28;117431;-86
2021/01/23 01:38:38;;;;;;;;;;;8.10;75.60;;;;;;4930192;28;117565;-86
2021/01/23 01:41:03;;;;;;;;;;;8.10;75.70;;;;;;4931240;28;117468;-86
2021/01/23 01:43:29;;;;;;;;;;;8.10;75.60;;;;;;4947108;28;117544;-86
2021/01/23 01:45:54;;;;;;;;;;;8.10;75.60;;;;;;4930273;28;121250;-86
2021/01/23 01:48:20;;;;;;;;;;;8.10;75.60;;;;;;4930984;28;117378;-85
2021/01/23 01:50:45;;;;;;;;;;;8.10;75.60;;;;;;4931076;28;117841;-85
2021/01/23 01:53:11;;;;;;;;;;;8.10;75.60;;;;;;4930362;28;120126;-86
2021/01/23 01:55:36;;;;;;;;;;;8.10;75.60;;;;;;4929999;28;123176;-86
2021/01/23 01:58:02;;;;;;;;;;;8.10;75.50;;;;;;4931115;28;116886;-86
2021/01/23 02:00:34;;;;;;;;;;;8.10;75.60;;;;;;5107198;27;117480;-85
2021/01/23 02:03:04;;;;;;;;;;;8.10;75.60;;;;;;5087560;27;117367;-85
2021/01/23 02:05:32;;;;;;;;;;;8.10;75.50;;;;;;5070158;27;117366;-85
2021/01/23 02:08:16;;;;;;;;;;;8.10;75.60;;;;;;5068697;27;121569;-85
2021/01/23 02:10:45;;;;;;;;;;;8.10;75.60;;;;;;5065457;27;119669;-85
2021/01/23 02:13:18;;;;;;;;;;;8.10;75.60;;;;;;5049610;27;117231;-85
2021/01/23 02:15:46;;;;;;;;;;;8.10;75.60;;;;;;5066990;27;117345;-85
2021/01/23 02:18:12;;;;;;;;;;;8.10;75.50;;;;;;5048046;27;120302;-85
2021/01/23 02:20:57;;;;;;;;;;;8.10;75.60;;;;;;5048082;27;120610;-85
2021/01/23 02:23:24;;;;;;;;;;;8.10;75.50;;;;;;5049166;27;117693;-85
2021/01/23 02:25:56;;;;;;;;;;;8.10;75.50;;;;;;5049536;27;117539;-85
2021/01/23 02:28:22;;;;;;;;;;;8.10;75.60;;;;;;5048038;27;121426;-85
2021/01/23 02:30:58;;;;;;;;;;;8.10;75.50;;;;;;5048185;27;119668;-85
2021/01/23 02:33:24;;;;;;;;;;;8.10;75.50;;;;;;5049149;27;117776;-85
2021/01/23 02:35:49;;;;;;;;;;;8.10;75.60;;;;;;5049128;27;117889;-85
2021/01/23 02:38:15;;;;;;;;;;;8.10;75.60;;;;;;5047467;27;120295;-85
2021/01/23 02:40:40;;;;;;;;;;;8.10;75.60;;;;;;5065169;27;117462;-85
2021/01/23 02:43:06;;;;;;;;;;;8.10;76.10;;;;;;5048620;27;117556;-85
2021/01/23 02:45:31;;;;;;;;;;;8.10;75.60;;;;;;5048915;27;117501;-85
2021/01/23 02:47:57;;;;;;;;;;;8.10;75.60;;;;;;5047808;27;121302;-85
2021/01/23 02:50:22;;;;;;;;;;;8.10;75.60;;;;;;5047466;27;119395;-85
2021/01/23 02:53:00;;;;;;;;;;;8.10;75.70;;;;;;5048853;27;117292;-85
2021/01/23 02:55:27;;;;;;;;;;;8.00;75.60;;;;;;5049017;27;117281;-85
2021/01/23 02:57:53;;;;;;;;;;;8.00;75.50;;;;;;5064800;27;117506;-85
2021/01/23 03:00:18;;;;;;;;;;;8.10;75.70;;;;;;5046794;27;128291;-85
2021/01/23 03:02:47;;;;;;;;;;;8.00;75.50;;;;;;5048800;27;117395;-85
2021/01/23 03:05:13;;;;;;;;;;;8.10;75.50;;;;;;5048747;27;117239;-85
2021/01/23 03:07:38;;;;;;;;;;;8.00;75.50;;;;;;5047727;27;121949;-85
2021/01/23 03:10:07;;;;;;;;;;;8.00;75.60;;;;;;5044019;27;120565;-85
2021/01/23 03:12:33;;;;;;;;;;;8.00;75.50;;;;;;5035111;27;117519;-85
2021/01/23 03:14:58;;;;;;;;;;;8.00;75.40;;;;;;5035162;27;117728;-85
2021/01/23 03:17:24;;;;;;;;;;;8.00;75.50;;;;;;5033816;27;121252;-85
2021/01/23 03:19:49;;;;;;;;;;;8.00;75.60;;;;;;5033665;27;119063;-85
2021/01/23 03:22:15;;;;;;;;;;;8.00;75.60;;;;;;5034965;27;117429;-86
2021/01/23 03:24:40;;;;;;;;;;;8.00;75.60;;;;;;5052070;27;117873;-85
2021/01/23 03:27:06;;;;;;;;;;;8.00;75.60;;;;;;5033686;27;122266;-85
2021/01/23 03:29:31;;;;;;;;;;;8.00;75.60;;;;;;5033369;27;120814;-85
2021/01/23 03:31:57;;;;;;;;;;;8.00;75.60;;;;;;5034617;27;117551;-85
2021/01/23 03:34:22;;;;;;;;;;;8.00;75.60;;;;;;5034827;27;116987;-85
2021/01/23 03:36:48;;;;;;;;;;;8.00;75.60;;;;;;5033338;27;120053;-85
2021/01/23 03:39:13;;;;;;;;;;;8.00;75.60;;;;;;5033075;27;124134;-85
2021/01/23 03:41:39;;;;;;;;;;;8.00;75.60;;;;;;5051826;27;117427;-85
2021/01/23 03:44:05;;;;;;;;;;;8.00;75.60;;;;;;5034638;27;117956;-85
2021/01/23 03:46:30;;;;;;;;;;;8.00;75.60;;;;;;5050684;27;117650;-85
2021/01/23 03:48:56;;;;;;;;;;;8.00;75.60;;;;;;5033274;27;120829;-85
2021/01/23 03:51:21;;;;;;;;;;;8.00;75.60;;;;;;5034424;27;117550;-86
2021/01/23 03:53:47;;;;;;;;;;;8.00;75.60;;;;;;5034337;27;117852;-86
2021/01/23 03:56:12;;;;;;;;;;;8.00;75.60;;;;;;5033144;27;120983;-85
2021/01/23 03:58:38;;;;;;;;;;;8.00;75.50;;;;;;5049666;27;119620;-85
2021/01/23 04:01:03;;;;;;;;;;;8.00;75.60;;;;;;5051433;27;117546;-85
2021/01/23 04:03:29;;;;;;;;;;;8.00;75.60;;;;;;5034369;27;116917;-85
2021/01/23 04:05:54;;;;;;;;;;;8.00;75.60;;;;;;5033038;27;120010;-85
2021/01/23 04:08:20;;;;;;;;;;;8.00;75.60;;;;;;5050217;27;117437;-85
2021/01/23 04:10:45;;;;;;;;;;;8.00;75.60;;;;;;5034141;27;117596;-85
2021/01/23 04:13:11;;;;;;;;;;;8.00;75.60;;;;;;5034247;27;117570;-85
2021/01/23 04:15:37;;;;;;;;;;;8.00;75.60;;;;;;5032797;27;121182;-85
2021/01/23 04:18:03;;;;;;;;;;;8.00;75.60;;;;;;5049939;27;117839;-85
2021/01/23 04:20:28;;;;;;;;;;;8.00;75.50;;;;;;5050832;27;117322;-85
2021/01/23 04:22:54;;;;;;;;;;;8.00;75.50;;;;;;5032849;27;117886;-85
2021/01/23 04:25:19;;;;;;;;;;;8.00;75.50;;;;;;5049974;27;122374;-85
2021/01/23 04:27:45;;;;;;;;;;;8.00;75.60;;;;;;5032896;27;119562;-85
2021/01/23 04:30:11;;;;;;;;;;;8.00;75.60;;;;;;5050824;27;117244;-85
2021/01/23 04:32:37;;;;;;;;;;;8.00;75.60;;;;;;5034008;27;117419;-85
2021/01/23 04:35:06;;;;;;;;;;;8.00;75.60;;;;;;5032015;27;119452;-85
2021/01/23 04:37:31;;;;;;;;;;;8.00;75.50;;;;;;5032370;27;120784;-85
2021/01/23 04:39:57;;;;;;;;;;;8.00;75.60;;;;;;5033408;27;117779;-85
2021/01/23 04:42:22;;;;;;;;;;;8.00;75.60;;;;;;5050795;27;117933;-85
2021/01/23 04:44:48;;;;;;;;;;;8.00;75.60;;;;;;5032389;27;119921;-85
2021/01/23 04:47:13;;;;;;;;;;;8.00;75.60;;;;;;5032053;27;125199;-85
2021/01/23 04:49:39;;;;;;;;;;;8.00;75.60;;;;;;5033249;27;117587;-85
2021/01/23 04:52:05;;;;;;;;;;;8.00;75.60;;;;;;5033509;27;117857;-85
2021/01/23 04:54:30;;;;;;;;;;;8.00;75.60;;;;;;5032516;27;120512;-85
2021/01/23 04:56:56;;;;;;;;;;;8.00;75.60;;;;;;5032531;27;120440;-85
2021/01/23 04:59:21;;;;;;;;;;;8.00;75.60;;;;;;5032295;27;117546;-85
2021/01/23 05:02:07;;;;;;;;;;;7.90;75.60;;;;;;5033387;27;117322;-85
2021/01/23 05:04:46;;;;;;;;;;;7.90;75.60;;;;;;5030752;27;120659;-85
2021/01/23 05:07:11;;;;;;;;;;;7.90;75.60;;;;;;5032302;27;120526;-85
2021/01/23 05:09:38;;;;;;;;;;;7.90;75.60;;;;;;5032976;27;117658;-85
2021/01/23 05:12:03;;;;;;;;;;;8.00;75.60;;;;;;5033368;27;117274;-85
2021/01/23 05:14:29;;;;;;;;;;;7.90;75.60;;;;;;5032036;27;120551;-85
2021/01/23 05:17:02;;;;;;;;;;;7.90;76.20;;;;;;5032066;27;120660;-85
2021/01/23 05:19:39;;;;;;;;;;;8.00;75.60;;;;;;5032743;27;117562;-85
2021/01/23 05:22:04;;;;;;;;;;;7.90;75.60;;;;;;5033177;27;117755;-85
2021/01/23 05:24:30;;;;;;;;;;;7.90;75.50;;;;;;5048736;27;125476;-85
2021/01/23 05:26:55;;;;;;;;;;;7.90;75.60;;;;;;5031655;27;120331;-85
2021/01/23 05:29:21;;;;;;;;;;;7.90;75.70;;;;;;5032976;27;117731;-85
2021/01/23 05:31:46;;;;;;;;;;;7.90;75.60;;;;;;5033060;27;117393;-85
2021/01/23 05:34:24;;;;;;;;;;;7.90;75.70;;;;;;5031512;27;120076;-85
2021/01/23 05:36:50;;;;;;;;;;;7.90;75.70;;;;;;5031745;27;120502;-85
2021/01/23 05:39:15;;;;;;;;;;;7.90;75.50;;;;;;5049423;27;117510;-85
2021/01/23 05:41:41;;;;;;;;;;;7.90;75.60;;;;;;5049997;27;117372;-85
2021/01/23 05:44:10;;;;;;;;;;;7.90;75.70;;;;;;5031596;27;120084;-85
2021/01/23 05:46:37;;;;;;;;;;;7.90;75.70;;;;;;5031545;27;119793;-85
2021/01/23 05:49:03;;;;;;;;;;;7.90;75.70;;;;;;5032632;27;117661;-85
2021/01/23 05:51:28;;;;;;;;;;;7.90;75.70;;;;;;5032690;27;116955;-85
2021/01/23 05:53:54;;;;;;;;;;;7.90;75.70;;;;;;5031805;27;125387;-85
2021/01/23 05:56:19;;;;;;;;;;;7.80;75.60;;;;;;5031358;27;120623;-84
2021/01/23 05:58:45;;;;;;;;;;;7.90;75.70;;;;;;5031569;27;117936;-84
2021/01/23 06:01:10;;;;;;;;;;;7.80;75.70;;;;;;5032792;27;117447;-84
2021/01/23 06:03:36;;;;;;;;;;;7.80;75.70;;;;;;5048429;27;119640;-84
2021/01/23 06:06:02;;;;;;;;;;;7.90;75.70;;;;;;5030998;27;118959;-84
2021/01/23 06:08:54;;;;;;;;;;;7.90;75.60;;;;;;5048946;27;117253;-83
2021/01/23 06:11:19;;;;;;;;;;;7.90;75.70;;;;;;5043915;27;117755;-84
2021/01/23 06:13:48;;;;;;;;;;;7.80;75.60;;;;;;5047522;27;121537;-84
2021/01/23 06:16:32;;;;;;;;;;;7.80;75.70;;;;;;5030406;27;119713;-84
2021/01/23 06:18:58;;;;;;;;;;;7.80;75.70;;;;;;5048459;27;117232;-84
2021/01/23 06:21:42;;;;;;;;;;;7.80;75.70;;;;;;5067264;27;117715;-84
2021/01/23 06:24:07;;;;;;;;;;;7.80;75.60;;;;;;5066210;27;117495;-84
2021/01/23 06:26:33;;;;;;;;;;;7.90;75.70;;;;;;5030860;27;119303;-84
2021/01/23 06:28:59;;;;;;;;;;;7.90;75.70;;;;;;5048367;27;117407;-84
2021/01/23 06:31:31;;;;;;;;;;;7.80;75.70;;;;;;5031615;27;117777;-84
2021/01/23 06:33:56;;;;;;;;;;;7.90;75.70;;;;;;5047900;27;118498;-84
2021/01/23 06:36:22;;;;;;;;;;;7.90;75.70;;;;;;5047697;27;119429;-84
2021/01/23 06:39:00;;;;;;;;;;;7.80;75.70;;;;;;5031389;27;117233;-84
2021/01/23 06:41:26;;;;;;;;;;;7.90;75.70;;;;;;5031592;27;117768;-84
2021/01/23 06:44:07;;;;;;;;;;;7.90;75.70;;;;;;5047394;27;120934;-84
2021/01/23 06:46:44;;;;;;;;;;;7.90;75.70;;;;;;5068063;27;117771;-84
2021/01/23 06:49:10;;;;;;;;;;;7.80;75.60;;;;;;5034733;27;117507;-84
2021/01/23 06:51:38;;;;;;;;;;;7.80;75.60;;;;;;5035170;27;117718;-84
2021/01/23 06:54:16;;;;;;;;;;;7.90;75.70;;;;;;5051292;27;118341;-84
2021/01/23 06:56:47;;;;;;;;;;;7.90;75.70;;;;;;5033852;27;119684;-84
2021/01/23 06:59:21;;;;;;;;;;;7.80;75.60;;;;;;5034872;27;117386;-84
2021/01/23 07:01:57;;;;;;;;;;;7.80;75.60;;;;;;5051842;27;117748;-84
2021/01/23 07:04:23;;;;;;;;;;;7.90;75.70;;;;;;5033822;27;121884;-84
2021/01/23 07:06:48;;;;;;;;;;;7.80;75.70;;;;;;5033609;27;119566;-84
2021/01/23 07:09:14;;;;;;;;;;;7.80;75.70;;;;;;5034274;27;117551;-84
2021/01/23 07:11:39;;;;;;;;;;;7.90;75.70;;;;;;5034617;27;117478;-84
2021/01/23 07:14:08;;;;;;;;;;;7.80;75.70;;;;;;5033389;27;121263;-84
2021/01/23 07:16:34;;;;;;;;;;;7.80;75.60;;;;;;5033858;27;120503;-84
2021/01/23 07:19:00;;;;;;;;;;;7.90;75.70;;;;;;5051521;27;118454;-84
2021/01/23 07:21:26;;;;;;;;;;;7.80;75.60;;;;;;5034648;27;117556;-84
2021/01/23 07:23:52;;;;;;;;;;;7.80;75.60;;;;;;5033668;27;121218;-84
2021/01/23 07:26:18;;;;;;;;;;;7.80;75.60;;;;;;5033294;27;119515;-84
2021/01/23 07:28:44;;;;;;;;;;;7.80;75.60;;;;;;5034071;27;117743;-84
2021/01/23 07:31:16;;;;;;;;;;;7.90;75.60;;;;;;5034472;27;117740;-84
2021/01/23 07:33:41;;;;;;;;;;;7.80;75.60;;;;;;5050375;27;117550;-84
2021/01/23 07:36:07;;;;;;;;;;;7.80;75.70;;;;;;5033176;27;120272;-84
2021/01/23 07:38:32;;;;;;;;;;;7.80;75.60;;;;;;5033910;27;117446;-84
2021/01/23 07:40:58;;;;;;;;;;;7.80;75.60;;;;;;5034483;27;117913;-84
2021/01/23 07:43:23;;;;;;;;;;;7.80;75.60;;;;;;5033018;27;120254;-84
2021/01/23 07:45:52;;;;;;;;;;;7.80;75.60;;;;;;5032942;27;119264;-84
2021/01/23 07:48:17;;;;;;;;;;;7.80;75.60;;;;;;5034025;27;117536;-84
2021/01/23 07:50:43;;;;;;;;;;;7.80;75.60;;;;;;5034175;27;117934;-84
2021/01/23 07:53:19;;;;;;;;;;;7.80;75.60;;;;;;5032902;27;119676;-84
2021/01/23 07:55:44;;;;;;;;;;;7.80;75.60;;;;;;5050041;27;117971;-84
2021/01/23 07:58:10;;;;;;;;;;;7.80;75.60;;;;;;5050297;27;117426;-84
2021/01/23 08:00:36;;;;;;;;;;;7.80;75.60;;;;;;5033963;27;117314;-84
2021/01/23 08:03:01;;;;;;;;;;;7.80;75.60;;;;;;5032632;27;120358;-84
2021/01/23 08:05:42;;;;;;;;;;;7.80;75.60;;;;;;5032808;27;119775;-85
2021/01/23 08:08:08;;;;;;;;;;;7.80;75.60;;;;;;5050369;27;117445;-84
2021/01/23 08:10:37;;;;;;;;;;;7.80;76.20;;;;;;5034049;27;117849;-84
2021/01/23 08:13:03;;;;;;;;;;;7.80;75.60;;;;;;5032850;27;120642;-84
2021/01/23 08:15:29;;;;;;;;;;;7.80;75.60;;;;;;5032569;27;120762;-84
2021/01/23 08:17:55;;;;;;;;;;;7.80;75.60;;;;;;5033638;27;117413;-84
2021/01/23 08:20:33;;;;;;;;;;;7.80;75.60;;;;;;5033462;27;117744;-84
2021/01/23 08:23:03;;;;;;;;;;;7.70;75.50;;;;;;5067693;27;118738;-84
2021/01/23 08:25:30;;;;;;;;;;;7.80;75.60;;;;;;5032796;27;119381;-84
2021/01/23 08:27:56;;;;;;;;;;;7.80;75.60;;;;;;5033573;27;116690;-84
2021/01/23 08:30:22;;;;;;;;;;;7.70;75.60;;;;;;5033305;27;117816;-84
2021/01/23 08:32:47;;;;;;;;;;;7.80;75.60;;;;;;5032247;27;121529;-84
2021/01/23 08:35:13;;;;;;;;;;;7.80;75.60;;;;;;5032362;27;120672;-84
2021/01/23 08:37:38;;;;;;;;;;;7.80;75.60;;;;;;5033392;27;117434;-84
2021/01/23 08:40:04;;;;;;;;;;;7.70;75.60;;;;;;5032914;27;117793;-84
2021/01/23 08:42:30;;;;;;;;;;;7.70;75.50;;;;;;5032159;27;120256;-84
2021/01/23 08:44:55;;;;;;;;;;;7.80;75.60;;;;;;5031770;27;119670;-84
2021/01/23 08:47:21;;;;;;;;;;;7.70;75.50;;;;;;5050326;27;117531;-84
2021/01/23 08:49:46;;;;;;;;;;;7.70;75.50;;;;;;5033031;27;117893;-84
2021/01/23 08:52:12;;;;;;;;;;;7.80;75.60;;;;;;5031855;27;120442;-84
2021/01/23 08:54:39;;;;;;;;;;;7.70;75.50;;;;;;5032014;27;119220;-84
2021/01/23 08:57:05;;;;;;;;;;;7.70;75.50;;;;;;5050194;27;117462;-84
2021/01/23 08:59:30;;;;;;;;;;;7.70;75.50;;;;;;5032470;27;117848;-84
2021/01/23 09:01:56;;;;;;;;;;;7.80;75.60;;;;;;5031755;27;125991;-84
2021/01/23 09:04:21;;;;;;;;;;;7.80;75.70;;;;;;5049017;27;118067;-84
2021/01/23 09:06:47;;;;;;;;;;;7.70;75.60;;;;;;5032833;27;117365;-84
2021/01/23 09:09:13;;;;;;;;;;;7.80;75.60;;;;;;5049127;27;117549;-84
2021/01/23 09:11:38;;;;;;;;;;;7.80;75.60;;;;;;5048916;27;117666;-84
2021/01/23 09:14:04;;;;;;;;;;;7.70;75.50;;;;;;5031768;27;120424;-84
2021/01/23 09:16:30;;;;;;;;;;;7.70;75.50;;;;;;5032622;27;117290;-84
2021/01/23 09:18:55;;;;;;;;;;;7.70;75.60;;;;;;5049772;27;117835;-84
2021/01/23 09:21:21;;;;;;;;;;;7.80;75.60;;;;;;5031320;27;120241;-84
2021/01/23 09:23:46;;;;;;;;;;;7.70;75.50;;;;;;5048746;27;117572;-84
2021/01/23 09:26:12;;;;;;;;;;;7.70;75.50;;;;;;5032371;27;117670;-84
2021/01/23 09:28:37;;;;;;;;;;;7.70;75.50;;;;;;5032435;27;117296;-84
2021/01/23 09:31:03;;;;;;;;;;;7.70;75.60;;;;;;5031386;27;121338;-84
2021/01/23 09:33:28;;;;;;;;;;;7.70;75.60;;;;;;5031455;27;119378;-84
2021/01/23 09:35:55;;;;;;;;;;;7.70;75.50;;;;;;5032329;27;117563;-84
2021/01/23 09:38:21;;;;;;;;;;;7.70;75.60;;;;;;5032744;27;117906;-84
2021/01/23 09:40:46;;;;;;;;;;;7.70;75.50;;;;;;5031087;27;119954;-84
2021/01/23 09:43:12;;;;;;;;;;;7.70;75.50;;;;;;5031403;27;119422;-84
2021/01/23 09:45:37;;;;;;;;;;;7.70;75.50;;;;;;5032196;27;117472;-84
2021/01/23 09:48:03;;;;;;;;;;;7.80;75.70;;;;;;5032290;27;117485;-84
2021/01/23 09:50:29;;;;;;;;;;;7.70;75.50;;;;;;5048245;27;118635;-84
2021/01/23 09:52:54;;;;;;;;;;;7.70;75.50;;;;;;5030990;27;119439;-84
2021/01/23 09:55:20;;;;;;;;;;;7.70;75.50;;;;;;5049402;27;117491;-84
2021/01/23 09:57:45;;;;;;;;;;;7.80;75.60;;;;;;5031918;27;117303;-84
2021/01/23 10:00:11;;;;;;;;;;;7.80;75.60;;;;;;5030534;27;122620;-84
2021/01/23 10:02:37;;;;;;;;;;;7.80;75.60;;;;;;5048157;27;117284;-84
2021/01/23 10:05:03;;;;;;;;;;;7.70;75.50;;;;;;5031996;27;117604;-84
2021/01/23 10:07:28;;;;;;;;;;;7.70;75.50;;;;;;5032088;27;117856;-84
2021/01/23 10:09:54;;;;;;;;;;;7.70;75.50;;;;;;5030454;27;123754;-84
2021/01/23 10:12:19;;;;;;;;;;;7.70;75.50;;;;;;5047795;27;117615;-84
2021/01/23 10:14:45;;;;;;;;;;;7.70;75.50;;;;;;5032208;27;117469;-84
2021/01/23 10:17:11;;;;;;;;;;;7.70;75.50;;;;;;5032139;27;117930;-84
2021/01/23 10:19:37;;;;;;;;;;;7.70;75.50;;;;;;5047679;27;117668;-84
2021/01/23 10:22:03;;;;;;;;;;;7.80;75.60;;;;;;5050661;27;117427;-84
2021/01/23 10:24:28;;;;;;;;;;;7.70;75.50;;;;;;5035437;27;117368;-84
2021/01/23 10:26:53;;;;;;;;;;;7.70;75.50;;;;;;5035519;27;117541;-84
2021/01/23 10:29:19;;;;;;;;;;;7.70;75.50;;;;;;5033883;27;121178;-84
2021/01/23 10:31:45;;;;;;;;;;;7.70;75.50;;;;;;5051478;27;117596;-84
2021/01/23 10:34:10;;;;;;;;;;;7.70;75.60;;;;;;5035190;27;117553;-84
2021/01/23 10:36:36;;;;;;;;;;;7.70;75.50;;;;;;5035295;27;117386;-84
2021/01/23 10:39:01;;;;;;;;;;;7.70;75.50;;;;;;5051266;27;118262;-84
2021/01/23 10:41:27;;;;;;;;;;;7.70;75.60;;;;;;5033853;27;120199;-84
2021/01/23 10:43:52;;;;;;;;;;;7.70;75.60;;;;;;5035066;27;117521;-84
2021/01/23 10:46:18;;;;;;;;;;;7.70;75.60;;;;;;5034930;27;117279;-84
2021/01/23 10:48:43;;;;;;;;;;;7.70;75.60;;;;;;5033418;27;129431;-84
2021/01/23 10:51:09;;;;;;;;;;;7.70;75.60;;;;;;5033821;27;120411;-84
2021/01/23 10:53:34;;;;;;;;;;;7.70;75.60;;;;;;5052051;27;117359;-84
2021/01/23 10:56:00;;;;;;;;;;;7.70;75.60;;;;;;5034936;27;117752;-84
2021/01/23 10:58:26;;;;;;;;;;;7.70;75.60;;;;;;5033066;27;121053;-84
2021/01/23 11:00:51;;;;;;;;;;;7.70;75.60;;;;;;5033791;27;119591;-84
2021/01/23 11:03:17;;;;;;;;;;;7.70;76.20;;;;;;5035017;27;117545;-84
2021/01/23 11:05:43;;;;;;;;;;;7.70;75.60;;;;;;5034940;27;117470;-84
2021/01/23 11:08:08;;;;;;;;;;;7.70;75.60;;;;;;5033369;27;121456;-84
2021/01/23 11:10:35;;;;;;;;;;;7.70;75.70;;;;;;5032972;27;127385;-84
2021/01/23 11:13:00;;;;;;;;;;;7.70;75.60;;;;;;5051954;27;117273;-84
2021/01/23 11:15:26;;;;;;;;;;;7.70;75.50;;;;;;5034670;27;117355;-84
2021/01/23 11:17:51;;;;;;;;;;;7.70;75.60;;;;;;5033386;27;121383;-84
2021/01/23 11:20:17;;;;;;;;;;;7.70;75.50;;;;;;5050531;27;117602;-84
2021/01/23 11:22:43;;;;;;;;;;;7.70;75.50;;;;;;5034444;27;117714;-84
2021/01/23 11:25:10;;;;;;;;;;;7.70;75.60;;;;;;5034478;27;117790;-84
2021/01/23 11:27:35;;;;;;;;;;;7.70;75.60;;;;;;5033408;27;120982;-84
2021/01/23 11:30:01;;;;;;;;;;;7.70;75.60;;;;;;5050333;27;117979;-84
2021/01/23 11:32:28;;;;;;;;;;;7.70;75.70;;;;;;5051054;27;117493;-84
2021/01/23 11:34:53;;;;;;;;;;;7.70;75.70;;;;;;5034525;27;117771;-84
2021/01/23 11:37:19;;;;;;;;;;;7.70;75.70;;;;;;5033055;27;120757;-84
2021/01/23 11:39:44;;;;;;;;;;;7.70;75.70;;;;;;5032718;27;120338;-84
2021/01/23 11:42:10;;;;;;;;;;;7.70;75.60;;;;;;5034246;27;117630;-84
2021/01/23 11:44:36;;;;;;;;;;;7.70;75.60;;;;;;5034205;27;117294;-84
2021/01/23 11:47:01;;;;;;;;;;;7.70;75.70;;;;;;5032926;27;121228;-84
2021/01/23 11:49:27;;;;;;;;;;;7.70;75.60;;;;;;5032605;27;125892;-84
2021/01/23 11:51:52;;;;;;;;;;;7.70;75.60;;;;;;5034220;27;117549;-84
2021/01/23 11:54:18;;;;;;;;;;;7.70;75.70;;;;;;5034243;27;117839;-84
2021/01/23 11:56:44;;;;;;;;;;;7.70;75.70;;;;;;5032876;27;121144;-84
2021/01/23 11:59:09;;;;;;;;;;;7.70;75.60;;;;;;5032432;27;120851;-84
2021/01/23 12:01:35;;;;;;;;;;;7.70;75.70;;;;;;5050716;27;117372;-84
2021/01/23 12:04:00;;;;;;;;;;;7.70;75.60;;;;;;5033899;27;117472;-84
2021/01/23 12:06:26;;;;;;;;;;;7.70;75.60;;;;;;5032557;27;121425;-84
2021/01/23 12:08:51;;;;;;;;;;;7.70;75.60;;;;;;5049761;27;117821;-84
2021/01/23 12:11:17;;;;;;;;;;;7.70;75.70;;;;;;5033886;27;117499;-84
2021/01/23 12:13:43;;;;;;;;;;;7.70;75.70;;;;;;5051118;27;118155;-84
2021/01/23 12:16:09;;;;;;;;;;;7.70;75.70;;;;;;5032607;27;121734;-84
2021/01/23 12:18:34;;;;;;;;;;;7.70;75.70;;;;;;5032259;27;119517;-84
2021/01/23 12:21:00;;;;;;;;;;;7.70;75.60;;;;;;5033122;27;117840;-84
2021/01/23 12:23:25;;;;;;;;;;;7.70;75.60;;;;;;5033505;27;117955;-84
2021/01/23 12:25:51;;;;;;;;;;;7.70;75.60;;;;;;5032515;27;121838;-84
2021/01/23 12:28:16;;;;;;;;;;;7.70;75.60;;;;;;5032212;27;119500;-84
2021/01/23 12:30:42;;;;;;;;;;;7.70;75.70;;;;;;5033357;27;117603;-84
2021/01/23 12:33:07;;;;;;;;;;;7.70;75.70;;;;;;5033726;27;117792;-84
2021/01/23 12:35:33;;;;;;;;;;;7.70;75.70;;;;;;5032334;27;120451;-84
2021/01/23 12:37:59;;;;;;;;;;;7.70;75.70;;;;;;5032204;27;120777;-84
2021/01/23 12:40:25;;;;;;;;;;;7.70;75.70;;;;;;5033192;27;117826;-84
2021/01/23 12:42:50;;;;;;;;;;;7.70;75.70;;;;;;5032745;27;117732;-84
2021/01/23 12:45:16;;;;;;;;;;;7.70;75.70;;;;;;5031777;27;120368;-84
2021/01/23 12:47:42;;;;;;;;;;;7.70;75.70;;;;;;5032025;27;119116;-84
2021/01/23 12:50:07;;;;;;;;;;;7.70;75.70;;;;;;5032933;27;117566;-84
2021/01/23 12:52:33;;;;;;;;;;;7.70;75.60;;;;;;5050432;27;117533;-84
2021/01/23 12:54:59;;;;;;;;;;;7.70;75.70;;;;;;5032037;27;119751;-84
2021/01/23 12:57:24;;;;;;;;;;;7.70;75.70;;;;;;5031898;27;120097;-84
2021/01/23 12:59:50;;;;;;;;;;;7.70;75.70;;;;;;5032239;27;118130;-84
2021/01/23 13:02:16;;;;;;;;;;;7.70;75.70;;;;;;5050220;27;117764;-84
2021/01/23 13:04:42;;;;;;;;;;;7.70;75.70;;;;;;5032200;27;120447;-84
2021/01/23 13:07:08;;;;;;;;;;;7.70;75.70;;;;;;5031755;27;119363;-84
2021/01/23 13:09:34;;;;;;;;;;;7.70;75.70;;;;;;5032639;27;117577;-84
2021/01/23 13:12:00;;;;;;;;;;;7.70;75.70;;;;;;5050043;27;117948;-84
2021/01/23 13:14:25;;;;;;;;;;;7.70;75.80;;;;;;5031556;27;120466;-84
2021/01/23 13:16:50;;;;;;;;;;;7.70;75.70;;;;;;5048809;27;121478;-84
2021/01/23 13:19:16;;;;;;;;;;;7.70;75.70;;;;;;5032422;27;117455;-84
2021/01/23 13:21:42;;;;;;;;;;;7.70;75.70;;;;;;5032806;27;117461;-84
2021/01/23 13:24:07;;;;;;;;;;;7.60;75.70;;;;;;5031951;27;121351;-85
2021/01/23 13:26:33;;;;;;;;;;;7.70;75.80;;;;;;5031464;27;120511;-85
2021/01/23 13:28:59;;;;;;;;;;;7.70;75.70;;;;;;5032534;27;117553;-85
2021/01/23 13:31:24;;;;;;;;;;;7.70;75.70;;;;;;5032714;27;117358;-85
2021/01/23 13:33:53;;;;;;;;;;;7.70;75.70;;;;;;5048476;27;117480;-85
2021/01/23 13:36:18;;;;;;;;;;;7.70;75.70;;;;;;5048757;27;118088;-85
2021/01/23 13:38:44;;;;;;;;;;;7.70;75.70;;;;;;5032048;27;117736;-85
2021/01/23 13:41:09;;;;;;;;;;;7.70;75.70;;;;;;5032392;27;117427;-85
2021/01/23 13:43:36;;;;;;;;;;;7.70;75.70;;;;;;5031184;27;120341;-85
2021/01/23 13:46:02;;;;;;;;;;;7.70;75.70;;;;;;5031318;27;120661;-85
2021/01/23 13:48:29;;;;;;;;;;;7.70;75.60;;;;;;5032181;27;117788;-85
2021/01/23 13:50:55;;;;;;;;;;;7.70;75.70;;;;;;5067599;27;117696;-85
2021/01/23 13:53:21;;;;;;;;;;;7.70;75.70;;;;;;5031048;27;121235;-85
2021/01/23 13:55:46;;;;;;;;;;;7.70;75.70;;;;;;5030742;27;119588;-85
2021/01/23 13:58:12;;;;;;;;;;;7.70;75.70;;;;;;5031447;27;117298;-85
2021/01/23 14:00:37;;;;;;;;;;;7.70;75.70;;;;;;5032296;27;116853;-85
2021/01/23 14:03:03;;;;;;;;;;;7.70;75.70;;;;;;5030948;27;121068;-85
2021/01/23 14:05:29;;;;;;;;;;;7.70;75.70;;;;;;5030966;27;119522;-85
2021/01/23 14:07:54;;;;;;;;;;;7.70;75.70;;;;;;5031902;27;117475;-85
2021/01/23 14:10:20;;;;;;;;;;;7.70;75.70;;;;;;5049108;27;117853;-85
2021/01/23 14:12:45;;;;;;;;;;;7.70;75.70;;;;;;5030890;27;121074;-85